createdAt,value
2022-10-25T00:00:30.994Z,1.20
2022-10-25T00:02:58.348Z,1.20
2022-10-25T00:05:25.646Z,1.27
2022-10-25T00:07:52.988Z,1.27
2022-10-25T00:10:23.495Z,1.00
2022-10-25T00:12:53.008Z,1.13
2022-10-25T00:15:20.313Z,1.40
2022-10-25T00:17:48.016Z,1.33
2022-10-25T00:20:15.467Z,1.60
2022-10-25T00:22:43.115Z,1.00
2022-10-25T00:25:10.960Z,0.93
2022-10-25T00:27:38.984Z,0.90
2022-10-25T00:30:06.942Z,0.53
2022-10-25T00:32:34.748Z,1.10
2022-10-25T00:35:02.020Z,0.87
2022-10-25T00:37:29.309Z,1.33
2022-10-25T00:39:56.645Z,0.90
2022-10-25T00:42:26.134Z,1.10
2022-10-25T00:44:53.505Z,1.10
2022-10-25T00:47:20.886Z,0.80
2022-10-25T00:50:08.410Z,0.70
2022-10-25T00:52:36.935Z,0.70
2022-10-25T00:55:06.186Z,0.90
2022-10-25T00:57:35.080Z,0.70
2022-10-25T01:00:02.780Z,0.60
2022-10-25T01:02:30.158Z,0.80
2022-10-25T01:05:00.282Z,0.90
2022-10-25T01:07:27.680Z,0.80
2022-10-25T01:09:55.032Z,0.70
2022-10-25T01:12:22.429Z,0.53
2022-10-25T01:14:51.920Z,0.70
2022-10-25T01:17:30.633Z,0.90
2022-10-25T01:20:09.943Z,1.00
2022-10-25T01:22:40.347Z,0.90
2022-10-25T01:25:22.950Z,0.97
2022-10-25T01:27:50.275Z,1.00
2022-10-25T01:30:17.573Z,1.00
2022-10-25T01:32:51.857Z,0.60
2022-10-25T01:35:28.450Z,0.70
2022-10-25T01:38:14.478Z,0.90
2022-10-25T01:40:48.514Z,1.13
2022-10-25T01:43:15.845Z,0.70
2022-10-25T01:45:54.415Z,0.80
2022-10-25T01:48:29.794Z,0.67
2022-10-25T01:51:05.282Z,0.70
2022-10-25T01:53:32.622Z,1.00
2022-10-25T01:56:01.762Z,1.10
2022-10-25T01:58:58.514Z,1.00
2022-10-25T02:01:41.172Z,0.70
2022-10-25T02:04:17.515Z,1.00
2022-10-25T02:07:00.729Z,1.00
2022-10-25T02:09:34.003Z,1.00
2022-10-25T02:12:01.616Z,0.90
2022-10-25T02:14:32.770Z,0.73
2022-10-25T02:17:03.494Z,0.90
2022-10-25T02:19:42.553Z,0.80
2022-10-25T02:22:11.320Z,0.90
2022-10-25T02:24:39.481Z,0.90
2022-10-25T02:27:07.602Z,0.80
2022-10-25T02:29:35.242Z,0.73
2022-10-25T02:32:03.407Z,0.80
2022-10-25T02:34:30.968Z,1.00
2022-10-25T02:36:58.634Z,0.80
2022-10-25T02:39:29.178Z,0.90
2022-10-25T02:41:58.765Z,1.27
2022-10-25T02:44:26.042Z,1.00
2022-10-25T02:46:53.439Z,1.00
2022-10-25T02:49:20.777Z,1.00
2022-10-25T02:51:48.185Z,1.00
2022-10-25T02:54:15.607Z,0.73
2022-10-25T02:56:42.915Z,0.80
2022-10-25T02:59:11.992Z,0.70
2022-10-25T03:01:39.696Z,0.80
2022-10-25T03:04:07.154Z,0.60
2022-10-25T03:06:34.430Z,1.00
2022-10-25T03:09:04.503Z,0.70
2022-10-25T03:11:31.893Z,0.70
2022-10-25T03:13:59.198Z,0.60
2022-10-25T03:16:26.486Z,0.90
2022-10-25T03:18:53.716Z,0.60
2022-10-25T03:21:21.047Z,0.70
2022-10-25T03:23:48.422Z,0.60
2022-10-25T03:26:15.844Z,0.90
2022-10-25T03:28:43.194Z,0.93
2022-10-25T03:31:14.515Z,0.90
2022-10-25T03:33:41.906Z,0.63
2022-10-25T03:36:09.488Z,0.70
2022-10-25T03:38:36.872Z,0.53
2022-10-25T03:41:07.215Z,0.70
2022-10-25T03:43:34.592Z,0.53
2022-10-25T03:46:01.967Z,0.63
2022-10-25T03:48:29.275Z,0.50
2022-10-25T03:50:56.650Z,0.70
2022-10-25T03:53:24.072Z,0.60
2022-10-25T03:55:51.406Z,0.77
2022-10-25T03:58:19.785Z,0.70
2022-10-25T04:00:47.223Z,0.53
2022-10-25T04:03:14.586Z,0.60
2022-10-25T04:05:41.992Z,0.60
2022-10-25T04:08:09.367Z,0.67
2022-10-25T04:10:36.782Z,0.73
2022-10-25T04:13:07.207Z,1.00
2022-10-25T04:15:34.630Z,0.60
2022-10-25T04:18:01.972Z,0.47
2022-10-25T04:20:29.440Z,0.70
2022-10-25T04:22:57.499Z,1.90
2022-10-25T04:25:26.212Z,1.03
2022-10-25T04:27:53.695Z,0.70
2022-10-25T04:30:21.062Z,0.80
2022-10-25T04:32:48.552Z,0.80
2022-10-25T04:35:16.234Z,0.80
2022-10-25T04:37:43.586Z,0.83
2022-10-25T04:40:11.342Z,0.80
2022-10-25T04:42:38.673Z,0.63
2022-10-25T04:45:07.527Z,0.80
2022-10-25T04:47:35.172Z,0.60
2022-10-25T04:50:02.774Z,0.30
2022-10-25T04:52:30.782Z,0.63
2022-10-25T04:54:58.573Z,0.53
2022-10-25T04:57:26.608Z,0.73
2022-10-25T04:59:54.265Z,0.60
2022-10-25T05:02:21.624Z,0.70
2022-10-25T05:04:49.023Z,0.70
2022-10-25T05:07:19.889Z,0.73
2022-10-25T05:09:47.459Z,0.90
2022-10-25T05:12:15.446Z,0.70
2022-10-25T05:14:42.831Z,0.60
2022-10-25T05:17:10.193Z,0.50
2022-10-25T05:19:37.645Z,0.60
2022-10-25T05:22:05.051Z,0.80
2022-10-25T05:24:32.488Z,1.00
2022-10-25T05:26:59.833Z,0.90
2022-10-25T05:29:27.243Z,1.07
2022-10-25T05:31:54.603Z,0.90
2022-10-25T05:34:22.072Z,1.00
2022-10-25T05:36:49.427Z,0.83
2022-10-25T05:39:16.754Z,0.80
2022-10-25T05:41:44.153Z,0.60
2022-10-25T05:44:11.563Z,0.60
2022-10-25T05:46:38.893Z,1.63
2022-10-25T05:49:09.775Z,1.23
2022-10-25T05:51:37.427Z,1.83
2022-10-25T05:54:15.033Z,1.20
2022-10-25T05:56:43.042Z,1.20
2022-10-25T05:59:11.559Z,0.70
2022-10-25T06:01:40.497Z,0.90
2022-10-25T06:04:08.376Z,0.70
2022-10-25T06:06:36.297Z,0.70
2022-10-25T06:09:04.424Z,0.90
2022-10-25T06:11:32.056Z,1.20
2022-10-25T06:13:59.486Z,3.13
2022-10-25T06:16:26.842Z,2.80
2022-10-25T06:18:54.777Z,2.33
2022-10-25T06:21:23.625Z,3.03
2022-10-25T06:23:51.348Z,2.00
2022-10-25T06:26:23.715Z,1.10
2022-10-25T06:28:55.608Z,0.90
2022-10-25T06:31:23.009Z,0.70
2022-10-25T06:33:50.424Z,1.30
2022-10-25T06:36:19.412Z,1.17
2022-10-25T06:38:47.416Z,0.90
2022-10-25T06:41:19.021Z,0.60
2022-10-25T06:43:46.776Z,0.60
2022-10-25T06:46:26.234Z,0.73
2022-10-25T06:48:54.458Z,0.70
2022-10-25T06:51:22.447Z,1.07
2022-10-25T06:53:55.006Z,1.17
2022-10-25T06:56:22.683Z,0.67
2022-10-25T06:58:50.099Z,0.73
2022-10-25T07:01:19.070Z,0.63
2022-10-25T07:03:47.374Z,1.20
2022-10-25T07:06:15.715Z,0.90
2022-10-25T07:08:44.421Z,0.80
2022-10-25T07:11:16.377Z,0.70
2022-10-25T07:13:43.993Z,1.00
2022-10-25T07:16:12.549Z,1.30
2022-10-25T07:18:39.976Z,0.80
2022-10-25T07:21:18.315Z,0.80
2022-10-25T07:23:45.895Z,0.87
2022-10-25T07:26:20.913Z,1.00
2022-10-25T07:28:48.916Z,1.10
2022-10-25T07:31:17.827Z,1.00
2022-10-25T07:33:45.185Z,0.93
2022-10-25T07:36:12.605Z,0.90
2022-10-25T07:38:40.133Z,1.10
2022-10-25T07:41:11.074Z,1.20
2022-10-25T07:43:38.528Z,1.20
2022-10-25T07:46:06.209Z,0.80
2022-10-25T07:48:33.904Z,0.77
2022-10-25T07:51:05.607Z,1.23
2022-10-25T07:53:33.013Z,1.10
2022-10-25T07:56:00.407Z,1.10
2022-10-25T07:58:27.816Z,1.07
2022-10-25T08:01:01.004Z,0.90
2022-10-25T08:03:28.418Z,0.97
2022-10-25T08:05:55.875Z,0.97
2022-10-25T08:08:24.547Z,1.00
2022-10-25T08:10:52.374Z,1.00
2022-10-25T08:13:19.972Z,0.93
2022-10-25T08:15:51.317Z,1.03
2022-10-25T08:18:18.733Z,1.00
2022-10-25T08:21:03.131Z,0.77
2022-10-25T08:23:31.941Z,0.77
2022-10-25T08:25:59.713Z,1.00
2022-10-25T08:28:27.113Z,0.80
2022-10-25T08:30:58.194Z,1.10
2022-10-25T08:33:25.594Z,1.10
2022-10-25T08:35:53.037Z,0.60
2022-10-25T08:38:20.334Z,1.20
2022-10-25T08:40:59.782Z,1.00
2022-10-25T08:43:27.142Z,1.30
2022-10-25T08:46:23.844Z,0.90
2022-10-25T08:48:53.822Z,0.70
2022-10-25T08:51:30.348Z,0.90
2022-10-25T08:54:02.387Z,0.93
2022-10-25T08:56:30.472Z,0.70
2022-10-25T08:59:02.035Z,0.80
2022-10-25T09:01:41.559Z,0.90
2022-10-25T09:04:09.735Z,0.90
2022-10-25T09:06:41.445Z,1.30
2022-10-25T09:09:12.467Z,2.07
2022-10-25T09:11:42.588Z,1.03
2022-10-25T09:14:26.925Z,0.97
2022-10-25T09:16:56.799Z,0.80
2022-10-25T09:19:27.136Z,1.00
2022-10-25T09:21:58.234Z,0.80
2022-10-25T09:24:44.308Z,0.70
2022-10-25T09:27:14.726Z,1.37
2022-10-25T09:29:47.559Z,1.00
2022-10-25T09:32:25.150Z,1.00
2022-10-25T09:34:54.484Z,1.33
2022-10-25T09:37:26.898Z,0.80
2022-10-25T09:39:55.845Z,0.73
2022-10-25T09:42:28.664Z,0.87
2022-10-25T09:44:57.841Z,1.10
2022-10-25T09:47:31.366Z,1.20
2022-10-25T09:50:06.538Z,0.70
2022-10-25T09:52:46.447Z,0.60
2022-10-25T09:55:14.228Z,1.00
2022-10-25T09:57:42.230Z,0.83
2022-10-25T10:00:13.437Z,1.20
2022-10-25T10:02:41.419Z,0.93
2022-10-25T10:05:20.008Z,0.90
2022-10-25T10:07:48.823Z,0.93
2022-10-25T10:10:27.272Z,0.70
2022-10-25T10:15:36.656Z,0.67
2022-10-25T10:18:22.636Z,0.60
2022-10-25T10:21:01.387Z,0.50
2022-10-25T10:23:30.547Z,0.68
2022-10-25T10:26:00.821Z,0.90
2022-10-25T10:28:28.297Z,0.60
2022-10-25T10:30:57.771Z,0.50
2022-10-25T10:33:27.214Z,2.43
2022-10-25T10:35:55.417Z,0.80
2022-10-25T10:38:22.916Z,0.88
2022-10-25T10:40:51.834Z,0.95
2022-10-25T10:43:29.876Z,0.98
2022-10-25T10:46:01.695Z,0.70
2022-10-25T10:48:32.493Z,0.77
2022-10-25T10:50:59.953Z,0.50
2022-10-25T10:53:33.013Z,0.55
2022-10-25T10:56:02.686Z,0.40
2022-10-25T10:58:37.034Z,0.40
2022-10-25T11:01:09.375Z,0.88
2022-10-25T11:03:53.643Z,0.63
2022-10-25T11:06:28.755Z,0.63
2022-10-25T11:09:14.984Z,0.63
2022-10-25T11:11:42.805Z,0.68
2022-10-25T11:14:14.365Z,0.32
2022-10-25T11:17:00.236Z,0.60
2022-10-25T11:19:33.673Z,0.47
2022-10-25T11:22:06.910Z,0.40
2022-10-25T11:24:34.264Z,0.40
2022-10-25T11:27:01.592Z,0.30
2022-10-25T11:29:52.192Z,0.40
2022-10-25T11:32:38.226Z,0.47
2022-10-25T11:35:24.126Z,0.82
2022-10-25T11:38:02.899Z,2.08
2022-10-25T11:40:45.134Z,0.52
2022-10-25T11:43:18.668Z,0.40
2022-10-25T11:45:47.022Z,0.30
2022-10-25T11:48:15.885Z,0.30
2022-10-25T11:50:55.404Z,0.40
2022-10-25T11:53:41.444Z,0.40
2022-10-25T11:56:21.965Z,0.40
2022-10-25T11:58:58.604Z,0.40
2022-10-25T12:01:28.827Z,0.30
2022-10-25T12:04:29.802Z,0.30
2022-10-25T12:06:57.565Z,0.40
2022-10-25T12:09:43.344Z,0.30
2022-10-25T12:12:15.530Z,0.28
2022-10-25T12:14:44.804Z,0.57
2022-10-25T12:17:30.593Z,0.30
2022-10-25T12:19:59.447Z,0.40
2022-10-25T12:22:32.724Z,0.30
2022-10-25T12:25:01.384Z,0.40
2022-10-25T12:27:29.873Z,0.40
2022-10-25T12:29:59.530Z,0.30
2022-10-25T12:32:42.504Z,0.30
2022-10-25T12:35:24.556Z,0.38
2022-10-25T12:37:57.878Z,2.13
2022-10-25T12:40:27.822Z,0.35
2022-10-25T12:43:00.850Z,0.40
2022-10-25T12:45:48.206Z,0.50
2022-10-25T12:48:15.536Z,0.30
2022-10-25T12:51:03.194Z,0.60
2022-10-25T12:53:42.664Z,0.30
2022-10-25T12:56:09.998Z,0.30
2022-10-25T12:58:58.864Z,0.20
2022-10-25T13:01:26.192Z,0.40
2022-10-25T13:03:53.608Z,0.20
2022-10-25T13:06:36.164Z,0.35
2022-10-25T13:09:06.166Z,0.28
2022-10-25T13:11:34.690Z,0.50
2022-10-25T13:14:02.691Z,0.40
2022-10-25T13:16:31.350Z,0.43
2022-10-25T13:19:25.764Z,0.40
2022-10-25T13:22:07.470Z,0.30
2022-10-25T13:24:44.505Z,0.30
2022-10-25T13:27:14.645Z,0.40
2022-10-25T13:29:50.003Z,0.98
2022-10-25T13:32:19.395Z,0.10
2022-10-25T13:34:47.688Z,0.30
2022-10-25T13:37:33.574Z,0.30
2022-10-25T13:40:03.607Z,0.30
2022-10-25T13:42:38.331Z,0.30
2022-10-25T13:45:05.626Z,0.30
2022-10-25T13:47:37.891Z,0.40
2022-10-25T13:50:14.108Z,0.30
2022-10-25T13:52:46.373Z,0.40
2022-10-25T13:55:15.325Z,0.40
2022-10-25T13:57:51.965Z,0.40
2022-10-25T14:00:19.343Z,0.47
2022-10-25T14:03:05.482Z,0.40
2022-10-25T14:05:51.543Z,0.35
2022-10-25T14:08:34.022Z,0.20
2022-10-25T14:11:10.074Z,0.30
2022-10-25T14:13:44.584Z,0.43
2022-10-25T14:16:17.847Z,0.30
2022-10-25T14:18:45.483Z,0.47
2022-10-25T14:21:13.065Z,0.45
2022-10-25T14:23:41.563Z,0.57
2022-10-25T14:26:14.490Z,0.70
2022-10-25T14:28:41.824Z,0.57
2022-10-25T14:31:12.450Z,0.50
2022-10-25T14:33:44.856Z,0.60
2022-10-25T14:36:38.473Z,0.40
2022-10-25T14:39:16.724Z,0.47
2022-10-25T14:41:50.658Z,0.50
2022-10-25T14:44:21.922Z,0.40
2022-10-25T14:46:49.363Z,0.57
2022-10-25T14:49:16.796Z,0.50
2022-10-25T14:51:45.070Z,0.50
2022-10-25T14:54:12.429Z,0.68
2022-10-25T14:56:42.907Z,0.40
2022-10-25T14:59:20.066Z,0.60
2022-10-25T15:02:26.010Z,0.50
2022-10-25T15:04:54.837Z,0.50
2022-10-25T15:07:26.240Z,0.88
2022-10-25T15:09:54.972Z,0.50
2022-10-25T15:12:24.943Z,0.60
2022-10-25T15:14:53.363Z,0.40
2022-10-25T15:17:23.598Z,0.50
2022-10-25T15:19:59.892Z,0.70
2022-10-25T15:22:39.363Z,0.70
2022-10-25T15:25:23.116Z,0.35
2022-10-25T15:27:56.631Z,0.60
2022-10-25T15:30:42.591Z,0.50
2022-10-25T15:33:11.964Z,0.70
2022-10-25T15:35:59.092Z,0.95
2022-10-25T15:39:01.239Z,0.50
2022-10-25T15:41:23.671Z,0.50
2022-10-25T15:43:51.712Z,0.50
2022-10-25T15:46:31.043Z,0.68
2022-10-25T15:49:02.390Z,0.70
2022-10-25T15:51:31.212Z,0.60
2022-10-25T15:53:58.764Z,1.05
2022-10-25T15:56:26.271Z,0.70
2022-10-25T15:58:53.782Z,0.52
2022-10-25T16:01:24.302Z,1.10
2022-10-25T16:03:51.713Z,0.52
2022-10-25T16:06:19.032Z,0.70
2022-10-25T16:08:46.591Z,0.70
2022-10-25T16:11:15.947Z,0.50
2022-10-25T16:13:44.428Z,0.80
2022-10-25T16:16:39.286Z,1.37
2022-10-25T16:19:08.103Z,0.67
2022-10-25T16:21:35.483Z,0.52
2022-10-25T16:24:02.773Z,0.52
2022-10-25T16:26:51.329Z,0.60
2022-10-25T16:29:24.445Z,1.80
2022-10-25T16:31:52.544Z,0.67
2022-10-25T16:34:20.028Z,0.83
2022-10-25T16:36:48.117Z,0.47
2022-10-25T16:39:15.881Z,0.60
2022-10-25T16:41:44.429Z,1.20
2022-10-25T16:44:12.938Z,1.47
2022-10-25T16:46:40.462Z,1.57
2022-10-25T16:49:09.630Z,1.67
2022-10-25T16:51:37.702Z,1.00
2022-10-25T16:54:05.375Z,1.00
2022-10-25T16:56:32.748Z,0.70
2022-10-25T16:59:00.711Z,0.60
2022-10-25T17:01:34.036Z,0.97
2022-10-25T17:04:02.444Z,1.20
2022-10-25T17:06:41.689Z,0.63
2022-10-25T17:09:09.755Z,0.60
2022-10-25T17:11:38.029Z,0.70
2022-10-25T17:14:05.420Z,0.90
2022-10-25T17:16:33.473Z,0.87
2022-10-25T17:19:01.002Z,2.00
2022-10-25T17:21:28.769Z,1.70
2022-10-25T17:23:56.990Z,1.93
2022-10-25T17:26:24.436Z,1.50
2022-10-25T17:28:51.916Z,0.73
2022-10-25T17:31:19.302Z,0.80
2022-10-25T17:33:46.685Z,0.60
2022-10-25T17:36:15.873Z,0.70
2022-10-25T17:38:43.250Z,0.83
2022-10-25T17:41:11.213Z,0.70
2022-10-25T17:43:39.443Z,0.80
2022-10-25T17:46:08.470Z,0.80
2022-10-25T17:48:36.185Z,1.13
2022-10-25T17:51:04.488Z,1.40
2022-10-25T17:53:31.893Z,1.30
2022-10-25T17:55:59.615Z,1.50
2022-10-25T17:58:26.951Z,1.50
2022-10-25T18:00:55.582Z,0.73
2022-10-25T18:03:22.930Z,0.80
2022-10-25T18:05:50.383Z,0.83
2022-10-25T18:08:17.832Z,0.90
2022-10-25T18:10:45.187Z,3.03
2022-10-25T18:13:12.565Z,7.70
2022-10-25T18:15:39.985Z,4.27
2022-10-25T18:18:07.354Z,1.83
2022-10-25T18:20:34.715Z,1.40
2022-10-25T18:23:02.154Z,0.90
2022-10-25T18:25:29.528Z,0.67
2022-10-25T18:27:56.940Z,0.80
2022-10-25T18:30:24.336Z,1.00
2022-10-25T18:32:53.363Z,1.40
2022-10-25T18:35:21.463Z,0.97
2022-10-25T18:37:49.080Z,1.00
2022-10-25T18:40:16.655Z,1.20
2022-10-25T18:42:44.049Z,1.10
2022-10-25T18:45:11.432Z,1.47
2022-10-25T18:47:38.874Z,1.37
2022-10-25T18:50:06.533Z,1.10
2022-10-25T18:52:33.913Z,1.37
2022-10-25T18:55:01.289Z,0.93
2022-10-25T18:57:30.652Z,1.00
2022-10-25T18:59:58.027Z,0.87
2022-10-25T19:02:25.492Z,0.90
2022-10-25T19:04:53.133Z,1.10
2022-10-25T19:07:20.525Z,1.17
2022-10-25T19:09:47.955Z,0.80
2022-10-25T19:12:15.395Z,1.60
2022-10-25T19:14:42.798Z,1.63
2022-10-25T19:17:10.206Z,1.50
2022-10-25T19:19:37.546Z,0.83
2022-10-25T19:22:04.886Z,0.90
2022-10-25T19:24:33.708Z,0.70
2022-10-25T19:27:01.089Z,0.90
2022-10-25T19:29:31.554Z,0.77
2022-10-25T19:31:58.925Z,0.97
2022-10-25T19:34:26.346Z,0.90
2022-10-25T19:36:53.708Z,0.97
2022-10-25T19:39:21.649Z,1.00
2022-10-25T19:41:50.481Z,1.10
2022-10-25T19:44:17.797Z,0.80
2022-10-25T19:46:45.103Z,0.73
2022-10-25T19:49:12.491Z,0.90
2022-10-25T19:51:39.846Z,0.73
2022-10-25T19:54:07.204Z,0.90
2022-10-25T19:56:37.297Z,0.70
2022-10-25T19:59:05.076Z,0.80
2022-10-25T20:01:32.641Z,0.60
2022-10-25T20:04:00.916Z,1.07
2022-10-25T20:06:29.534Z,1.20
2022-10-25T20:08:57.633Z,0.77
2022-10-25T20:11:25.515Z,1.30
2022-10-25T20:13:54.176Z,1.00
2022-10-25T20:16:21.483Z,1.00
2022-10-25T20:18:48.845Z,1.20
2022-10-25T20:21:17.624Z,1.00
2022-10-25T20:23:54.532Z,0.90
2022-10-25T20:26:23.426Z,0.93
2022-10-25T20:28:52.714Z,0.73
2022-10-25T20:31:20.154Z,0.93
2022-10-25T20:33:47.586Z,1.00
2022-10-25T20:36:15.016Z,1.17
2022-10-25T20:38:42.424Z,1.10
2022-10-25T20:41:11.394Z,0.83
2022-10-25T20:43:39.234Z,1.00
2022-10-25T20:46:07.487Z,0.60
2022-10-25T20:48:35.248Z,0.93
2022-10-25T20:51:05.483Z,0.93
2022-10-25T20:53:35.119Z,1.10
2022-10-25T20:56:02.575Z,0.90
2022-10-25T20:58:29.914Z,0.80
2022-10-25T21:00:57.822Z,0.80
2022-10-25T21:03:29.375Z,0.77
2022-10-25T21:06:03.759Z,0.87
2022-10-25T21:08:31.232Z,0.70
2022-10-25T21:10:59.843Z,0.93
2022-10-25T21:13:29.422Z,0.80
2022-10-25T21:15:56.962Z,0.83
2022-10-25T21:18:27.424Z,0.73
2022-10-25T21:20:55.495Z,0.80
2022-10-25T21:23:22.878Z,0.90
2022-10-25T21:25:57.522Z,1.00
2022-10-25T21:28:26.463Z,0.80
2022-10-25T21:30:54.341Z,1.00
2022-10-25T21:33:21.700Z,0.63
2022-10-25T21:35:49.038Z,0.60
2022-10-25T21:38:16.402Z,0.80
2022-10-25T21:40:43.750Z,0.87
2022-10-25T21:43:11.082Z,0.80
2022-10-25T21:45:42.243Z,0.90
2022-10-25T21:48:09.643Z,1.00
2022-10-25T21:50:37.064Z,1.00
2022-10-25T21:53:04.462Z,0.80
2022-10-25T21:55:31.902Z,0.87
2022-10-25T21:57:59.605Z,0.80
2022-10-25T22:00:27.195Z,1.00
2022-10-25T22:02:54.548Z,0.70
2022-10-25T22:05:21.906Z,0.90
2022-10-25T22:07:49.483Z,0.80
2022-10-25T22:10:17.003Z,0.53
2022-10-25T22:12:44.394Z,0.90
2022-10-25T22:15:11.795Z,1.00
2022-10-25T22:17:39.140Z,1.10
2022-10-25T22:20:06.783Z,1.00
2022-10-25T22:22:34.140Z,0.67
2022-10-25T22:25:01.482Z,0.73
2022-10-25T22:27:28.862Z,0.90
2022-10-25T22:29:56.242Z,0.80
2022-10-25T22:32:23.575Z,0.80
2022-10-25T22:34:50.912Z,0.80
2022-10-25T22:37:18.263Z,0.67
2022-10-25T22:39:45.580Z,1.07
2022-10-25T22:42:13.929Z,0.70
2022-10-25T22:44:41.264Z,0.80
2022-10-25T22:47:08.594Z,0.90
2022-10-25T22:49:35.965Z,0.80
2022-10-25T22:52:03.323Z,0.70
2022-10-25T22:54:30.684Z,0.80
2022-10-25T22:56:58.269Z,0.90
2022-10-25T22:59:25.643Z,0.83
2022-10-25T23:01:53.658Z,0.80
2022-10-25T23:04:21.046Z,0.90
2022-10-25T23:06:48.434Z,0.90
2022-10-25T23:09:15.809Z,0.83
2022-10-25T23:11:43.300Z,1.00
2022-10-25T23:14:14.935Z,1.03
2022-10-25T23:16:44.807Z,0.77
2022-10-25T23:19:12.144Z,1.00
2022-10-25T23:21:39.513Z,0.90
2022-10-25T23:24:07.007Z,0.93
2022-10-25T23:26:36.492Z,1.00
2022-10-25T23:29:04.454Z,0.80
2022-10-25T23:31:32.251Z,1.00
2022-10-25T23:34:00.549Z,0.70
2022-10-25T23:36:29.632Z,0.80
2022-10-25T23:38:57.368Z,0.80
2022-10-25T23:41:24.948Z,1.00
2022-10-25T23:43:52.384Z,0.97
2022-10-25T23:46:19.874Z,1.20
2022-10-25T23:48:47.546Z,1.03
2022-10-25T23:51:16.689Z,0.97
2022-10-25T23:53:44.353Z,0.83
2022-10-25T23:56:12.456Z,0.93
2022-10-25T23:58:39.962Z,1.00
